METAR Data
IDs: Format: Raw Decoded Include TAF

Data at: 1620 UTC 19 Sep 2018

KDLN 191553Z AUTO 00000KT 10SM BKN026 08/04 A3005 RMK AO2 SLP149 T00830044 $
KDLN 191453Z AUTO 28003KT 10SM FEW021 06/04 A3006 RMK AO2 SLP157 T00610044 53010 $
KDLN 191353Z AUTO 10005KT 10SM CLR 04/03 A3004 RMK AO2 SLP150 T00440033 $
KDLN 191253Z AUTO 11009KT 10SM CLR 04/03 A3003 RMK AO2 SLP140 T00390028 $
KDLN 191153Z AUTO 11009KT 10SM CLR 04/03 A3002 RMK AO2 SLP132 T00390028 10089 20039 53005 $
KDLN 191053Z AUTO 09008KT 10SM CLR 04/03 A3002 RMK AO2 SLP128 T00440028 $
KDLN 190953Z AUTO 08008KT 10SM CLR 05/02 A3001 RMK AO2 SLP125 T00500022 $
KDLN 190853Z AUTO 11008KT 10SM CLR 05/02 A3001 RMK AO2 SLP128 T00500022 52003 $
KDLN 190753Z AUTO 07006KT 10SM CLR 07/03 A3001 RMK AO2 SLP128 T00670033 $
KDLN 190653Z AUTO 08010KT 10SM CLR 08/03 A3000 RMK AO2 SLP125 T00830033 402280000 $
KDLN 190553Z AUTO 07010KT 10SM CLR 09/04 A3000 RMK AO2 SLP128 T00890039 10222 20083 50007 $
KDLN 190453Z AUTO 10008KT 10SM CLR 08/02 A3000 RMK AO2 SLP136 T00830022 $
KDLN 190353Z AUTO 00000KT 10SM CLR 12/02 A3000 RMK AO2 SLP133 T01220022 $
KDLN 190253Z AUTO 09006KT 10SM CLR 12/01 A2997 RMK AO2 SLP127 T01220006 53023 $
KDLN 190153Z AUTO 01011KT 10SM CLR 16/M01 A2994 RMK AO2 SLP117 T01561011 $
KDLN 190053Z AUTO 03015KT 10SM CLR 19/00 A2992 RMK AO2 SLP101 T01890000 $
KDLN 182353Z AUTO 03009KT 10SM CLR 22/M05 A2990 RMK AO2 SLP089 T02221050 10228 20133 56009 $
KDLN 182253Z AUTO 05010KT 10SM CLR 23/M03 A2990 RMK AO2 SLP092 T02281028 $
KDLN 182153Z AUTO 03006KT 10SM CLR 22/M03 A2991 RMK AO2 SLP091 T02221033 $
KDLN 182053Z AUTO 35003KT 10SM CLR 21/M01 A2993 RMK AO2 SLP095 T02061006 57023 $
KDLN 181953Z AUTO VRB03KT 10SM CLR 19/00 A2995 RMK AO2 SLP108 T01890000 $
KDLN 181853Z AUTO VRB03KT 10SM CLR 17/01 A2998 RMK AO2 SLP122 T01670011 $
KDLN 181753Z AUTO 36003KT 10SM CLR 14/01 A3001 RMK AO2 SLP133 T01440006 10144 20000 58013 $
KDLN 181653Z AUTO 25003KT 10SM CLR 11/00 A3002 RMK AO2 SLP141 T01110000 $
KDLN 181553Z AUTO 24003KT 10SM CLR 09/01 A3004 RMK AO2 SLP149 T00890006 $
KDLN 181453Z AUTO 20006KT 10SM CLR 06/M01 A3005 RMK AO2 SLP152 T00611006 53004 $
KDLN 181353Z AUTO 20009KT 10SM CLR 02/M02 A3004 RMK AO2 SLP155 T00221017 FZRANO $
KDLN 181253Z AUTO 20006KT 10SM CLR 03/M02 A3003 RMK AO2 SLP139 T00281022 $
KDLN 181153Z AUTO 18009KT 10SM CLR 03/M01 A3003 RMK AO2 SLP136 T00331011 10083 20006 53003 $
KDLN 181053Z AUTO 22007KT 10SM CLR 01/M01 A3002 RMK AO2 SLP138 T00111011 FZRANO $
KDLN 180953Z AUTO 18006KT 10SM CLR 05/M01 A3002 RMK AO2 SLP133 T00501006 $
KDLN 180853Z AUTO 18003KT 10SM CLR 08/00 A3003 RMK AO2 SLP130 T00780000 58000 $
KDLN 180753Z AUTO 19004KT 10SM CLR 08/00 A3003 RMK AO2 SLP134 T00780000 $
KDLN 180653Z AUTO 20006KT 10SM CLR 06/01 A3004 RMK AO2 SLP140 T00610006 402331011 $
KDLN 180553Z AUTO 14006KT 10SM CLR 07/01 A3003 RMK AO2 SLP140 T00720006 10233 20072 51012 $
KDLN 180453Z AUTO 10003KT 10SM CLR 09/01 A3002 RMK AO2 SLP139 T00940011 $